Latest Weather Forecast - Wednesday 5th August 2020 (12 pm)

Forecast Period: 

12:00 pm 5th August 2020  to 6:00 pm 5th August 2020 

Synopsis:

A Tropical wave is approaching the islands

Forecast:

Partly cloudy to cloudy with scattered showers.

   Weather    Advisory/Warning:

None
Winds:

ENE - E at 10 - 25 km/h (6 – 16 mph) 

Sea Conditions:

Slight to moderate in open water; swells (1.0 m – 1.5 m)

 Marine 

Advisory/Warning:

None 

Upcoming Tides:
High: ****

 7:03 pm

Low: ****

****

Aviation WX

[Source: ADDS]
METAR
TVSA 242100Z 00000KT 9999 FEW020 30/25 Q1014 NOSIG =
TVSA 241700Z 2418/2518 07006KT 9999 SCT018 TEMPO 2418/2421 5000 TSRA BKN014 FEW015CB
TAF
TVSA 241700Z 2418/2518 07006KT 9999 SCT018 TEMPO 2418/2421 5000 TSRA BKN014 FEW015CB =
SR / SS: 09:53 / 21:59 UTC (Sunrise Sunset 2020-09-24)